createdAt,value
2023-02-09T00:01:22.623Z,102316.03
2023-02-09T00:03:53.316Z,102314.16
2023-02-09T00:06:23.222Z,102307.06
2023-02-09T00:08:51.923Z,102306.09
2023-02-09T00:11:22.104Z,102305.81
2023-02-09T00:13:49.241Z,102313.69
2023-02-09T00:16:17.432Z,102308.78
2023-02-09T00:18:45.709Z,102304.91
2023-02-09T00:21:15.231Z,102313.78
2023-02-09T00:23:43.760Z,102315.00
2023-02-09T00:26:12.945Z,102317.56
2023-02-09T00:28:45.086Z,102307.22
2023-02-09T00:31:13.988Z,102309.28
2023-02-09T00:33:42.373Z,102316.06
2023-02-09T00:36:13.894Z,102305.72
2023-02-09T00:38:44.355Z,102310.38
2023-02-09T00:41:14.514Z,102311.06
2023-02-09T00:43:42.834Z,102299.53
2023-02-09T00:46:11.228Z,102300.88
2023-02-09T00:48:39.421Z,102297.44
2023-02-09T00:51:07.839Z,102295.66
2023-02-09T00:53:40.200Z,102290.28
2023-02-09T00:56:09.805Z,102288.72
2023-02-09T00:58:40.017Z,102282.19
2023-02-09T01:01:13.331Z,102282.56
2023-02-09T01:03:41.547Z,102278.63
2023-02-09T01:06:10.378Z,102275.44
2023-02-09T01:08:40.262Z,102282.09
2023-02-09T01:11:11.121Z,102291.00
2023-02-09T01:13:39.781Z,102285.47
2023-02-09T01:16:08.319Z,102280.66
2023-02-09T01:18:37.014Z,102281.53
2023-02-09T01:21:11.336Z,102286.03
2023-02-09T01:23:40.371Z,102287.38
2023-02-09T01:26:11.790Z,102283.66
2023-02-09T01:28:40.346Z,102281.84
2023-02-09T01:31:20.218Z,102273.75
2023-02-09T01:33:51.532Z,102267.69
2023-02-09T01:36:20.038Z,102262.66
2023-02-09T01:38:52.654Z,102264.41
2023-02-09T01:41:23.015Z,102258.28
2023-02-09T01:43:55.292Z,102267.63
2023-02-09T01:46:28.604Z,102259.94
2023-02-09T01:49:05.129Z,102253.88
2023-02-09T01:51:37.872Z,102252.34
2023-02-09T01:54:10.460Z,102258.13
2023-02-09T01:56:43.890Z,102255.34
2023-02-09T01:59:14.781Z,102247.22
2023-02-09T02:01:45.162Z,102238.94
2023-02-09T02:04:14.768Z,102232.19
2023-02-09T02:06:43.140Z,102225.75
2023-02-09T02:09:14.362Z,102227.06
2023-02-09T02:11:48.160Z,102234.06
2023-02-09T02:14:30.240Z,102238.63
2023-02-09T02:17:09.930Z,102221.59
2023-02-09T02:20:17.369Z,102221.41
2023-02-09T02:23:00.521Z,102211.28
2023-02-09T02:26:06.158Z,102205.03
2023-02-09T02:28:46.230Z,102202.38
2023-02-09T02:31:37.506Z,102209.69
2023-02-09T02:34:09.933Z,102205.94
2023-02-09T02:36:45.753Z,102207.59
2023-02-09T02:39:23.390Z,102194.50
2023-02-09T02:42:17.059Z,102188.84
2023-02-09T02:44:51.115Z,102188.31
2023-02-09T02:47:23.573Z,102187.25
2023-02-09T02:49:56.385Z,102188.75
2023-02-09T02:52:24.941Z,102188.38
2023-02-09T02:55:01.594Z,102189.53
2023-02-09T02:57:33.766Z,102194.19
2023-02-09T03:00:07.509Z,102195.72
2023-02-09T03:02:41.704Z,102191.47
2023-02-09T03:05:11.049Z,102183.09
2023-02-09T03:07:39.167Z,102181.56
2023-02-09T03:10:26.614Z,102191.75
2023-02-09T03:13:08.341Z,102183.38
2023-02-09T03:21:39.455Z,102200.06
2023-02-09T03:24:13.586Z,102190.13
2023-02-09T03:26:48.519Z,102191.66
2023-02-09T03:29:19.236Z,102183.63
2023-02-09T03:31:49.181Z,102177.13
2023-02-09T03:34:19.803Z,102177.56
2023-02-09T03:36:53.184Z,102174.91
2023-02-09T03:39:21.319Z,102178.34
2023-02-09T03:41:49.409Z,102185.94
2023-02-09T03:44:29.656Z,102171.13
2023-02-09T03:46:59.566Z,102171.28
2023-02-09T03:49:31.520Z,102173.31
2023-02-09T03:52:00.717Z,102179.13
2023-02-09T03:54:29.114Z,102177.16
2023-02-09T03:56:58.229Z,102186.09
2023-02-09T03:59:26.843Z,102173.53
2023-02-09T04:01:56.230Z,102184.44
2023-02-09T04:04:25.243Z,102189.06
2023-02-09T04:06:56.019Z,102192.16
2023-02-09T04:09:25.974Z,102186.00
2023-02-09T04:11:54.499Z,102192.16
2023-02-09T04:14:22.669Z,102198.84
2023-02-09T04:16:51.535Z,102203.13
2023-02-09T04:19:19.548Z,102196.97
2023-02-09T04:21:47.958Z,102207.38
2023-02-09T04:24:17.570Z,102196.97
2023-02-09T04:26:46.068Z,102196.91
2023-02-09T04:29:14.247Z,102198.47
2023-02-09T04:31:42.438Z,102208.53
2023-02-09T04:34:10.561Z,102217.84
2023-02-09T04:36:38.691Z,102217.13
2023-02-09T04:39:06.747Z,102214.84
2023-02-09T04:41:36.355Z,102220.63
2023-02-09T04:44:04.608Z,102221.06
2023-02-09T04:46:32.739Z,102221.13
2023-02-09T04:49:00.848Z,102223.13
2023-02-09T04:51:29.268Z,102222.00
2023-02-09T04:53:57.729Z,102227.06
2023-02-09T04:56:26.020Z,102227.84
2023-02-09T04:59:12.921Z,102219.81
2023-02-09T05:01:41.045Z,102221.38
2023-02-09T05:04:09.052Z,102220.66
2023-02-09T05:06:37.443Z,102229.19
2023-02-09T05:09:05.635Z,102218.38
2023-02-09T05:11:33.806Z,102218.38
2023-02-09T05:14:03.327Z,102230.75
2023-02-09T05:16:31.518Z,102225.03
2023-02-09T05:18:59.681Z,102238.16
2023-02-09T05:21:28.022Z,102232.41
2023-02-09T05:23:56.256Z,102240.91
2023-02-09T05:26:24.462Z,102241.69
2023-02-09T05:28:52.687Z,102232.41
2023-02-09T05:31:22.519Z,102239.38
2023-02-09T05:33:50.632Z,102244.38
2023-02-09T05:36:18.742Z,102239.41
2023-02-09T05:38:46.848Z,102238.63
2023-02-09T05:41:36.209Z,102244.38
2023-02-09T05:44:05.570Z,102242.44
2023-02-09T05:46:35.205Z,102234.75
2023-02-09T05:49:03.135Z,102237.50
2023-02-09T05:51:31.210Z,102243.25
2023-02-09T05:53:59.278Z,102240.53
2023-02-09T05:56:27.582Z,102236.28
2023-02-09T05:58:58.267Z,102230.53
2023-02-09T06:01:26.540Z,102237.47
2023-02-09T06:03:56.185Z,102240.97
2023-02-09T06:06:24.446Z,102229.03
2023-02-09T06:08:52.805Z,102231.75
2023-02-09T06:11:20.894Z,102236.38
2023-02-09T06:13:49.222Z,102238.69
2023-02-09T06:16:17.581Z,102232.56
2023-02-09T06:18:45.841Z,102226.34
2023-02-09T06:21:15.690Z,102221.00
2023-02-09T06:23:43.979Z,102229.09
2023-02-09T06:26:15.328Z,102230.25
2023-02-09T06:28:44.008Z,102227.16
2023-02-09T06:31:12.953Z,102241.78
2023-02-09T06:33:41.215Z,102237.94
2023-02-09T06:36:10.845Z,102239.44
2023-02-09T06:38:40.511Z,102246.00
2023-02-09T06:41:08.641Z,102248.28
2023-02-09T06:43:38.147Z,102247.91
2023-02-09T06:46:07.808Z,102244.84
2023-02-09T06:48:36.345Z,102251.38
2023-02-09T06:51:08.712Z,102247.53
2023-02-09T06:53:37.830Z,102249.13
2023-02-09T06:56:08.262Z,102261.44
2023-02-09T06:58:37.650Z,102251.41
2023-02-09T07:01:05.946Z,102259.91
2023-02-09T07:03:34.778Z,102264.91
2023-02-09T07:06:08.196Z,102268.38
2023-02-09T07:08:37.159Z,102269.91
2023-02-09T07:11:09.467Z,102268.38
2023-02-09T07:13:37.931Z,102261.00
2023-02-09T07:16:09.382Z,102264.81
2023-02-09T07:18:38.450Z,102263.97
2023-02-09T07:21:09.387Z,102271.56
2023-02-09T07:23:37.864Z,102271.88
2023-02-09T07:26:09.817Z,102268.31
2023-02-09T07:28:38.894Z,102279.25
2023-02-09T07:31:09.710Z,102276.78
2023-02-09T07:33:38.530Z,102280.97
2023-02-09T07:36:08.712Z,102280.09
2023-02-09T07:38:37.963Z,102286.91
2023-02-09T07:41:08.880Z,102290.25
2023-02-09T07:43:36.981Z,102295.16
2023-02-09T07:46:07.698Z,102289.94
2023-02-09T07:48:37.575Z,102294.41
2023-02-09T07:51:06.257Z,102289.19
2023-02-09T07:53:34.676Z,102292.91
2023-02-09T07:56:02.784Z,102299.28
2023-02-09T07:58:32.395Z,102300.25
2023-02-09T08:01:04.963Z,102297.91
2023-02-09T08:03:35.309Z,102300.88
2023-02-09T08:06:06.792Z,102296.19
2023-02-09T08:08:35.227Z,102307.69
2023-02-09T08:11:05.306Z,102302.75
2023-02-09T08:13:38.231Z,102307.38
2023-02-09T08:16:10.907Z,102319.66
2023-02-09T08:18:42.169Z,102322.44
2023-02-09T08:21:13.688Z,102324.03
2023-02-09T08:23:45.127Z,102319.19
2023-02-09T08:26:15.140Z,102312.91
2023-02-09T08:28:45.547Z,102298.75
2023-02-09T08:31:15.556Z,102310.44
2023-02-09T08:33:45.284Z,102314.09
2023-02-09T08:36:14.257Z,102314.72
2023-02-09T08:38:42.944Z,102298.34
2023-02-09T08:41:13.293Z,102312.41
2023-02-09T08:43:41.888Z,102314.22
2023-02-09T08:46:13.919Z,102313.22
2023-02-09T08:48:44.152Z,102318.63
2023-02-09T08:51:15.240Z,102328.56
2023-02-09T08:53:46.156Z,102323.09
2023-02-09T08:56:14.757Z,102324.47
2023-02-09T08:58:43.165Z,102323.22
2023-02-09T09:01:13.603Z,102326.66
2023-02-09T09:03:42.371Z,102331.00
2023-02-09T09:06:12.053Z,102331.47
2023-02-09T09:08:40.949Z,102332.09
2023-02-09T09:11:13.072Z,102336.28
2023-02-09T09:13:41.665Z,102330.56
2023-02-09T09:16:17.141Z,102348.25
2023-02-09T09:18:45.656Z,102343.22
2023-02-09T09:21:14.890Z,102344.63
2023-02-09T09:23:43.289Z,102335.41
2023-02-09T09:26:11.998Z,102352.22
2023-02-09T09:28:40.156Z,102343.81
2023-02-09T09:31:09.663Z,102341.00
2023-02-09T09:33:39.732Z,102342.13
2023-02-09T09:36:08.781Z,102337.47
2023-02-09T09:38:39.246Z,102345.28
2023-02-09T09:41:19.848Z,102350.72
2023-02-09T09:43:48.546Z,102345.19
2023-02-09T09:46:20.493Z,102345.59
2023-02-09T09:48:53.050Z,102346.28
2023-02-09T09:51:26.545Z,102347.38
2023-02-09T09:53:58.801Z,102338.53
2023-02-09T09:56:28.270Z,102345.94
2023-02-09T09:58:56.682Z,102343.88
2023-02-09T10:01:28.520Z,102339.84
2023-02-09T10:04:01.986Z,102343.25
2023-02-09T10:06:35.574Z,102345.44
2023-02-09T10:09:07.220Z,102343.94
2023-02-09T10:11:39.278Z,102340.66
2023-02-09T10:14:07.559Z,102334.84
2023-02-09T10:16:38.223Z,102334.75
2023-02-09T10:19:21.136Z,102332.47
2023-02-09T10:21:50.161Z,102328.34
2023-02-09T10:24:23.791Z,102325.09
2023-02-09T10:27:08.672Z,102329.66
2023-02-09T10:29:37.162Z,102327.25
2023-02-09T10:32:09.114Z,102322.88
2023-02-09T10:34:46.810Z,102332.38
2023-02-09T10:37:22.178Z,102321.13
2023-02-09T10:40:00.149Z,102321.78
2023-02-09T10:42:31.080Z,102304.66
2023-02-09T10:45:07.760Z,102308.94
2023-02-09T10:47:36.505Z,102307.47
2023-02-09T10:50:18.626Z,102311.66
2023-02-09T10:52:57.375Z,102309.72
2023-02-09T10:55:30.633Z,102301.13
2023-02-09T10:58:07.601Z,102301.22
2023-02-09T11:00:42.544Z,102309.97
2023-02-09T11:03:18.046Z,102327.53
2023-02-09T11:06:01.471Z,102313.47
2023-02-09T11:08:43.787Z,102311.25
2023-02-09T11:11:29.562Z,102301.72
2023-02-09T11:13:58.032Z,102303.19
2023-02-09T11:16:38.772Z,102285.75
2023-02-09T11:19:18.459Z,102298.75
2023-02-09T11:22:00.995Z,102284.50
2023-02-09T11:24:45.308Z,102287.28
2023-02-09T11:27:28.772Z,102281.50
2023-02-09T11:30:12.372Z,102280.34
2023-02-09T11:32:46.377Z,102282.41
2023-02-09T11:35:19.252Z,102285.00
2023-02-09T11:37:56.245Z,102289.03
2023-02-09T11:40:29.837Z,102283.25
2023-02-09T11:43:15.565Z,102270.47
2023-02-09T11:45:46.613Z,102279.13
2023-02-09T11:48:23.656Z,102282.44
2023-02-09T11:51:04.552Z,102285.97
2023-02-09T11:53:41.943Z,102275.78
2023-02-09T11:56:13.487Z,102273.88
2023-02-09T11:58:50.492Z,102277.69
2023-02-09T12:01:31.335Z,102291.41
2023-02-09T12:04:12.315Z,102286.25
2023-02-09T12:06:44.129Z,102290.16
2023-02-09T12:09:39.958Z,102290.84
2023-02-09T12:12:16.182Z,102296.44
2023-02-09T12:15:02.038Z,102291.41
2023-02-09T12:17:41.394Z,102291.13
2023-02-09T12:20:23.403Z,102286.88
2023-02-09T12:23:07.678Z,102277.22
2023-02-09T12:25:51.795Z,102273.69
2023-02-09T12:28:39.190Z,102285.84
2023-02-09T12:31:15.887Z,102274.75
2023-02-09T12:34:28.687Z,102278.28
2023-02-09T12:37:36.896Z,102275.41
2023-02-09T12:40:23.894Z,102268.59
2023-02-09T12:43:14.353Z,102267.53
2023-02-09T12:45:44.135Z,102266.00
2023-02-09T12:48:17.579Z,102264.50
2023-02-09T12:50:54.785Z,102255.50
2023-02-09T12:53:56.801Z,102247.19
2023-02-09T12:56:33.828Z,102246.25
2023-02-09T12:59:24.808Z,102241.06
2023-02-09T13:02:27.375Z,102245.06
2023-02-09T13:05:02.900Z,102245.34
2023-02-09T13:07:41.450Z,102250.53
2023-02-09T13:10:21.627Z,102249.16
2023-02-09T13:12:53.984Z,102258.72
2023-02-09T13:15:23.490Z,102263.44
2023-02-09T13:18:05.431Z,102257.22
2023-02-09T13:21:00.653Z,102263.00
2023-02-09T13:23:34.438Z,102250.84
2023-02-09T13:26:15.519Z,102256.47
2023-02-09T13:28:43.677Z,102254.47
2023-02-09T13:31:27.080Z,102252.94
2023-02-09T13:34:04.352Z,102257.66
2023-02-09T13:36:41.733Z,102248.56
2023-02-09T13:39:22.537Z,102254.94
2023-02-09T13:41:53.705Z,102253.25
2023-02-09T13:44:23.689Z,102261.94
2023-02-09T13:46:56.069Z,102270.75
2023-02-09T13:49:25.456Z,102272.44
2023-02-09T13:52:14.086Z,102264.97
2023-02-09T13:54:44.269Z,102272.56
2023-02-09T13:57:26.476Z,102276.56
2023-02-09T13:59:54.915Z,102277.00
2023-02-09T14:02:27.848Z,102281.56
2023-02-09T14:05:00.949Z,102267.53
2023-02-09T14:07:34.297Z,102269.41
2023-02-09T14:10:06.226Z,102273.78
2023-02-09T14:12:56.686Z,102262.50
2023-02-09T14:15:48.485Z,102264.81
2023-02-09T14:18:33.607Z,102259.94
2023-02-09T14:21:16.472Z,102262.22
2023-02-09T14:23:46.628Z,102263.28
2023-02-09T14:26:22.500Z,102264.97
2023-02-09T14:28:54.044Z,102257.19
2023-02-09T14:31:24.959Z,102251.09
2023-02-09T14:33:57.053Z,102255.69
2023-02-09T14:36:30.932Z,102274.56
2023-02-09T14:39:12.809Z,102274.09
2023-02-09T14:41:41.154Z,102263.28
2023-02-09T14:44:20.362Z,102255.06
2023-02-09T14:46:50.284Z,102254.44
2023-02-09T14:49:20.998Z,102248.97
2023-02-09T14:51:51.031Z,102247.31
2023-02-09T14:54:26.371Z,102245.63
2023-02-09T14:56:58.008Z,102244.72
2023-02-09T14:59:28.038Z,102236.06
2023-02-09T15:01:56.381Z,102231.94
2023-02-09T15:04:26.210Z,102241.38
2023-02-09T15:06:59.560Z,102237.75
2023-02-09T15:09:34.491Z,102236.06
2023-02-09T15:12:06.432Z,102234.38
2023-02-09T15:14:39.241Z,102232.25
2023-02-09T15:17:17.020Z,102235.91
2023-02-09T15:19:47.449Z,102234.69
2023-02-09T15:22:17.363Z,102242.91
2023-02-09T15:24:47.324Z,102237.13
2023-02-09T15:27:25.004Z,102239.28
2023-02-09T15:29:54.513Z,102231.19
2023-02-09T15:32:24.565Z,102245.50
2023-02-09T15:34:54.712Z,102255.72
2023-02-09T15:37:26.604Z,102257.53
2023-02-09T15:39:58.526Z,102249.16
2023-02-09T15:42:44.249Z,102259.03
2023-02-09T15:45:36.022Z,102247.91
2023-02-09T15:48:04.992Z,102250.50
2023-02-09T15:50:36.867Z,102239.72
2023-02-09T15:53:07.311Z,102252.16
2023-02-09T15:55:36.660Z,102258.09
2023-02-09T15:58:11.822Z,102259.59
2023-02-09T16:00:40.385Z,102267.16
2023-02-09T16:03:14.831Z,102251.16
2023-02-09T16:05:45.149Z,102250.69
2023-02-09T16:08:19.156Z,102259.75
2023-02-09T16:10:48.420Z,102261.53
2023-02-09T16:13:18.485Z,102271.75
2023-02-09T16:15:46.634Z,102275.91
2023-02-09T16:18:15.284Z,102282.22
2023-02-09T16:20:50.802Z,102269.38
2023-02-09T16:23:22.647Z,102276.88
2023-02-09T16:25:52.481Z,102274.06
2023-02-09T16:28:21.843Z,102275.31
2023-02-09T16:30:54.022Z,102296.41
2023-02-09T16:33:23.617Z,102294.94
2023-02-09T16:35:56.165Z,102302.25
2023-02-09T16:38:26.606Z,102295.41
2023-02-09T16:40:56.669Z,102300.88
2023-02-09T16:43:25.738Z,102292.66
2023-02-09T16:46:03.348Z,102293.44
2023-02-09T16:48:34.839Z,102305.97
2023-02-09T16:51:05.650Z,102305.94
2023-02-09T16:53:38.096Z,102307.25
2023-02-09T16:56:10.048Z,102308.78
2023-02-09T16:58:38.637Z,102313.69
2023-02-09T17:01:14.355Z,102315.84
2023-02-09T17:03:44.803Z,102312.53
2023-02-09T17:06:17.392Z,102306.78
2023-02-09T17:08:45.795Z,102305.34
2023-02-09T17:11:17.968Z,102305.97
2023-02-09T17:13:46.431Z,102308.81
2023-02-09T17:16:18.986Z,102302.13
2023-02-09T17:18:50.076Z,102303.59
2023-02-09T17:21:23.472Z,102310.88
2023-02-09T17:23:52.107Z,102301.00
2023-02-09T17:26:21.399Z,102304.25
2023-02-09T17:28:49.722Z,102322.31
2023-02-09T17:31:21.773Z,102313.47
2023-02-09T17:33:54.214Z,102321.72
2023-02-09T17:36:27.388Z,102322.66
2023-02-09T17:39:00.362Z,102318.66
2023-02-09T17:41:33.759Z,102315.34
2023-02-09T17:44:24.221Z,102325.78
2023-02-09T17:46:59.997Z,102337.03
2023-02-09T17:49:28.536Z,102338.41
2023-02-09T17:51:58.396Z,102342.47
2023-02-09T17:54:27.845Z,102343.41
2023-02-09T17:56:56.057Z,102344.50
2023-02-09T17:59:24.184Z,102353.75
2023-02-09T18:01:55.168Z,102364.03
2023-02-09T18:04:26.912Z,102355.50
2023-02-09T18:06:57.757Z,102367.41
2023-02-09T18:09:27.456Z,102354.81
2023-02-09T18:12:02.097Z,102362.66
2023-02-09T18:14:32.360Z,102366.75
2023-02-09T18:17:01.713Z,102372.97
2023-02-09T18:19:30.104Z,102379.44
2023-02-09T18:22:01.574Z,102376.19
2023-02-09T18:24:33.470Z,102376.56
2023-02-09T18:27:02.080Z,102380.78
2023-02-09T18:29:30.871Z,102374.84
2023-02-09T18:31:59.842Z,102374.59
2023-02-09T18:34:28.669Z,102376.03
2023-02-09T18:36:56.948Z,102368.75
2023-02-09T18:39:25.623Z,102374.88
2023-02-09T18:41:55.459Z,102383.34
2023-02-09T18:44:29.223Z,102385.72
2023-02-09T18:47:00.330Z,102385.31
2023-02-09T18:49:28.891Z,102381.56
2023-02-09T18:51:58.859Z,102388.88
2023-02-09T18:54:28.810Z,102389.91
2023-02-09T18:56:58.878Z,102393.88
2023-02-09T18:59:30.246Z,102397.50
2023-02-09T19:01:59.128Z,102394.78
2023-02-09T19:04:27.520Z,102404.69
2023-02-09T19:06:55.919Z,102413.59
2023-02-09T19:09:24.318Z,102406.00
2023-02-09T19:11:52.428Z,102407.03
2023-02-09T19:14:40.443Z,102400.47
2023-02-09T19:17:10.308Z,102417.44
2023-02-09T19:19:38.895Z,102421.38
2023-02-09T19:22:07.347Z,102411.00
2023-02-09T19:24:35.560Z,102408.59
2023-02-09T19:27:06.701Z,102415.28
2023-02-09T19:29:37.709Z,102416.13
2023-02-09T19:32:06.572Z,102413.94
2023-02-09T19:34:36.985Z,102419.72
2023-02-09T19:37:05.597Z,102421.88
2023-02-09T19:39:35.156Z,102426.34
2023-02-09T19:42:03.310Z,102427.03
2023-02-09T19:44:32.418Z,102426.53
2023-02-09T19:47:02.074Z,102426.53
2023-02-09T19:49:31.070Z,102428.84
2023-02-09T19:51:59.837Z,102433.94
2023-02-09T19:54:29.777Z,102438.25
2023-02-09T19:56:58.046Z,102433.88
2023-02-09T19:59:26.440Z,102434.03
2023-02-09T20:01:54.729Z,102433.88
2023-02-09T20:04:24.901Z,102429.53
2023-02-09T20:06:53.409Z,102424.41
2023-02-09T20:09:21.837Z,102425.38
2023-02-09T20:14:23.273Z,102430.75
2023-02-09T20:16:53.894Z,102435.75
2023-02-09T20:19:24.254Z,102444.84
2023-02-09T20:21:52.595Z,102441.03
2023-02-09T20:24:20.778Z,102438.81
2023-02-09T20:26:49.086Z,102443.03
2023-02-09T20:29:18.937Z,102439.09
2023-02-09T20:31:47.194Z,102450.53
2023-02-09T20:34:19.798Z,102443.94
2023-02-09T20:36:51.138Z,102458.09
2023-02-09T20:39:22.224Z,102461.38
2023-02-09T20:42:12.910Z,102454.75
2023-02-09T20:44:58.811Z,102461.16
2023-02-09T20:47:27.033Z,102462.91
2023-02-09T20:49:57.733Z,102463.88
2023-02-09T20:52:28.348Z,102470.78
2023-02-09T20:54:57.346Z,102465.41
2023-02-09T20:57:29.479Z,102473.66
2023-02-09T21:00:00.377Z,102486.13
2023-02-09T21:02:28.847Z,102486.66
2023-02-09T21:04:57.720Z,102483.03
2023-02-09T21:07:27.358Z,102492.56
2023-02-09T21:09:55.901Z,102483.34
2023-02-09T21:12:24.238Z,102483.47
2023-02-09T21:14:53.399Z,102487.91
2023-02-09T21:17:21.982Z,102475.56
2023-02-09T21:19:50.228Z,102484.94
2023-02-09T21:22:18.713Z,102489.22
2023-02-09T21:24:48.540Z,102484.38
2023-02-09T21:27:16.703Z,102488.72
2023-02-09T21:29:44.872Z,102486.84
2023-02-09T21:32:13.061Z,102483.47
2023-02-09T21:34:41.292Z,102476.19
2023-02-09T21:37:12.870Z,102472.75
2023-02-09T21:39:41.605Z,102479.00
2023-02-09T21:42:28.811Z,102479.44
2023-02-09T21:44:57.520Z,102480.66
2023-02-09T21:47:26.838Z,102484.59
2023-02-09T21:49:55.294Z,102476.91
2023-02-09T21:52:23.806Z,102475.03
2023-02-09T21:54:54.119Z,102474.31
2023-02-09T21:57:23.832Z,102468.16
2023-02-09T21:59:52.083Z,102473.28
2023-02-09T22:02:20.673Z,102473.34
2023-02-09T22:04:50.043Z,102478.41
2023-02-09T22:07:18.135Z,102481.09
2023-02-09T22:09:46.371Z,102488.88
2023-02-09T22:12:14.609Z,102487.75
2023-02-09T22:14:44.160Z,102492.03
2023-02-09T22:17:12.324Z,102501.00
2023-02-09T22:19:40.575Z,102505.28
2023-02-09T22:22:08.874Z,102503.00
2023-02-09T22:24:37.048Z,102495.28
2023-02-09T22:27:06.465Z,102501.16
2023-02-09T22:29:34.615Z,102503.13
2023-02-09T22:32:04.191Z,102486.88
2023-02-09T22:34:32.632Z,102496.56
2023-02-09T22:37:00.754Z,102497.31
2023-02-09T22:39:28.842Z,102505.84
2023-02-09T22:41:58.032Z,102503.97
2023-02-09T22:44:27.835Z,102493.94
2023-02-09T22:46:55.971Z,102496.72
2023-02-09T22:49:25.927Z,102503.25
2023-02-09T22:51:54.129Z,102507.13
2023-02-09T22:54:22.271Z,102508.69
2023-02-09T22:56:50.471Z,102509.84
2023-02-09T22:59:18.558Z,102515.69
2023-02-09T23:01:48.607Z,102514.94
2023-02-09T23:04:16.966Z,102533.16
2023-02-09T23:06:46.929Z,102537.47
2023-02-09T23:09:15.944Z,102531.69
2023-02-09T23:11:44.302Z,102534.31
2023-02-09T23:14:12.547Z,102528.50
2023-02-09T23:16:41.919Z,102530.50
2023-02-09T23:19:13.504Z,102525.16
2023-02-09T23:21:45.003Z,102528.25
2023-02-09T23:24:16.966Z,102526.72
2023-02-09T23:26:45.741Z,102529.44
2023-02-09T23:29:16.370Z,102531.03
2023-02-09T23:31:46.561Z,102517.53
2023-02-09T23:34:16.816Z,102516.38
2023-02-09T23:36:45.570Z,102522.59
2023-02-09T23:39:22.316Z,102525.28
2023-02-09T23:41:50.748Z,102518.34
2023-02-09T23:44:19.593Z,102523.41
2023-02-09T23:46:47.815Z,102531.53
2023-02-09T23:49:16.142Z,102524.56
2023-02-09T23:51:46.603Z,102525.03
2023-02-09T23:54:16.442Z,102537.28
2023-02-09T23:56:46.621Z,102527.66
2023-02-09T23:59:16.263Z,102531.19
